Aviation Digital Data Service (ADDS)

Output produced by METARs form (0239 UTC 22 July 2017)
found at http://www.aviationweather.gov/adds/metars/
 
TAF HADR 211530Z 2118/2224 16007KT 9999 BKN027 SCT080 
     BECMG 2214/2217 9000 RA
       
HAAB 212100Z 28004KT 9999 BKN024 15/13 Q1026
TAF HAAB 212130Z 2200/2306 31010KT 9999 BKN040 SCT080 
     BECMG 2200/2203 34012KT 9000 -RA/BR BKN025 BKN080 
     BECMG 2207/2210 27010KT 9000 -RA/BR BKN030 BKN080